メインページ
METAR-TAF:

METAR-TAF

空港 :

ウンベルト・デルガード空港

リスボン, ポルトガル

緯度: 38-46N, 経度: 009-08W, 海抜: 114m

現時点の気象観測

当レポートは38分前の09:30(UTC)に作成
変向風 2kt
気温 12°C
湿度 94%
気圧 1026 hPa
視程10km以上
高度2000ftの雲はほとんどない

METAR: LPPT 190930Z VRB02KT 9999 FEW020 12/11 Q1026

時間: 10:08 (10:08 UTC)

予報

当レポートは5時間8分前の05:00(UTC)に作成
予報は19日の 06時(UTC)から 20日の 12時(UTC)まで有効
西/南西の風 5kt
視程10km以上
高度1500ftの雲はほとんどない
19日の 10時(UTC)から 19日の 12時(UTC)まで徐々に
西の風 8kt
高度3000ftの雲はほとんどない
20日の 00時(UTC)から 20日の 02時(UTC)まで徐々に
変向風 3kt
高度1500ftの雲は散在している
20日の 09時(UTC)から 20日の 12時(UTC)まで徐々に
東/北東の風 7kt

TAF: LPPT 190500Z 1906/2012 24005KT 9999 FEW015 BECMG 1910/1912 28008KT FEW030 BECMG 2000/2002 VRB03KT SCT015 BECMG 2009/2012 06007KT

4,000以上の空港の気象観測と天気予報(METAR報とTAF報)

利用可能な観測所は地図上に黄色い丸と赤い丸で示す。

丸の上にカーソルを重ねると観測所名を参照できる。

次にクリックすると気象観測と天気予報を参照できる。

マップの切り替え:黒色「×」印の緑ボタンをクリックして拡大、「-」印の緑ボタンをクリックして縮小、緑色の三角印をクリックして隣りの地図に切り替え


METAR-TAF: